sensor_id;sensor_type;location;lat;lon;timestamp;P1;durP1;ratioP1;P2;durP2;ratioP2
3601;SDS011;1815;50.950;6.920;2022-11-25T00:01:27;8.38;;;1.85;;
3601;SDS011;1815;50.950;6.920;2022-11-25T00:03:54;4.78;;;2.15;;
3601;SDS011;1815;50.950;6.920;2022-11-25T00:06:31;10.02;;;2.03;;
3601;SDS011;1815;50.950;6.920;2022-11-25T00:09:19;7.38;;;2.30;;
3601;SDS011;1815;50.950;6.920;2022-11-25T00:11:44;8.20;;;2.10;;
3601;SDS011;1815;50.950;6.920;2022-11-25T00:14:11;7.37;;;2.23;;
3601;SDS011;1815;50.950;6.920;2022-11-25T00:16:38;9.80;;;2.70;;
3601;SDS011;1815;50.950;6.920;2022-11-25T00:19:04;6.87;;;2.60;;
3601;SDS011;1815;50.950;6.920;2022-11-25T00:21:32;6.45;;;1.95;;
3601;SDS011;1815;50.950;6.920;2022-11-25T00:23:59;11.48;;;3.38;;
3601;SDS011;1815;50.950;6.920;2022-11-25T00:26:27;5.10;;;1.90;;
3601;SDS011;1815;50.950;6.920;2022-11-25T00:28:57;5.55;;;2.22;;
3601;SDS011;1815;50.950;6.920;2022-11-25T00:34:50;10.70;;;2.83;;
3601;SDS011;1815;50.950;6.920;2022-11-25T00:37:16;7.90;;;2.40;;
3601;SDS011;1815;50.950;6.920;2022-11-25T00:39:42;9.30;;;2.47;;
3601;SDS011;1815;50.950;6.920;2022-11-25T00:42:09;7.97;;;3.03;;
3601;SDS011;1815;50.950;6.920;2022-11-25T00:44:53;14.15;;;2.63;;
3601;SDS011;1815;50.950;6.920;2022-11-25T00:47:19;8.40;;;3.47;;
3601;SDS011;1815;50.950;6.920;2022-11-25T00:49:46;9.73;;;2.53;;
3601;SDS011;1815;50.950;6.920;2022-11-25T00:52:14;7.70;;;2.20;;
3601;SDS011;1815;50.950;6.920;2022-11-25T00:54:42;8.25;;;2.90;;
3601;SDS011;1815;50.950;6.920;2022-11-25T00:57:12;10.45;;;2.40;;
3601;SDS011;1815;50.950;6.920;2022-11-25T00:59:39;7.32;;;3.15;;
3601;SDS011;1815;50.950;6.920;2022-11-25T01:02:04;4.07;;;1.90;;
3601;SDS011;1815;50.950;6.920;2022-11-25T01:04:30;9.33;;;1.90;;
3601;SDS011;1815;50.950;6.920;2022-11-25T01:06:56;5.60;;;2.40;;
3601;SDS011;1815;50.950;6.920;2022-11-25T01:09:24;8.93;;;2.08;;
3601;SDS011;1815;50.950;6.920;2022-11-25T01:11:51;7.22;;;2.95;;
3601;SDS011;1815;50.950;6.920;2022-11-25T01:14:20;10.63;;;3.67;;
3601;SDS011;1815;50.950;6.920;2022-11-25T01:16:47;6.75;;;3.22;;
3601;SDS011;1815;50.950;6.920;2022-11-25T01:19:13;5.35;;;2.47;;
3601;SDS011;1815;50.950;6.920;2022-11-25T01:21:40;6.43;;;2.17;;
3601;SDS011;1815;50.950;6.920;2022-11-25T01:24:11;7.35;;;2.78;;
3601;SDS011;1815;50.950;6.920;2022-11-25T01:26:38;7.80;;;2.10;;
3601;SDS011;1815;50.950;6.920;2022-11-25T01:29:06;15.93;;;3.40;;
3601;SDS011;1815;50.950;6.920;2022-11-25T01:31:36;6.65;;;2.55;;
3601;SDS011;1815;50.950;6.920;2022-11-25T01:34:03;6.07;;;2.40;;
3601;SDS011;1815;50.950;6.920;2022-11-25T01:36:30;9.20;;;3.38;;
3601;SDS011;1815;50.950;6.920;2022-11-25T01:38:57;10.90;;;3.28;;
3601;SDS011;1815;50.950;6.920;2022-11-25T01:41:25;6.22;;;2.42;;
3601;SDS011;1815;50.950;6.920;2022-11-25T01:46:41;6.90;;;2.28;;
3601;SDS011;1815;50.950;6.920;2022-11-25T01:49:11;10.48;;;2.90;;
3601;SDS011;1815;50.950;6.920;2022-11-25T01:54:08;8.20;;;2.50;;
3601;SDS011;1815;50.950;6.920;2022-11-25T01:56:38;7.75;;;2.35;;
3601;SDS011;1815;50.950;6.920;2022-11-25T01:59:13;4.80;;;2.33;;
3601;SDS011;1815;50.950;6.920;2022-11-25T02:01:40;10.18;;;2.25;;
3601;SDS011;1815;50.950;6.920;2022-11-25T02:04:06;8.93;;;2.97;;
3601;SDS011;1815;50.950;6.920;2022-11-25T02:06:41;8.05;;;1.92;;
3601;SDS011;1815;50.950;6.920;2022-11-25T02:09:13;9.25;;;2.78;;
3601;SDS011;1815;50.950;6.920;2022-11-25T02:11:39;7.68;;;2.17;;
3601;SDS011;1815;50.950;6.920;2022-11-25T02:14:08;6.00;;;2.72;;
3601;SDS011;1815;50.950;6.920;2022-11-25T02:16:34;7.88;;;2.85;;
3601;SDS011;1815;50.950;6.920;2022-11-25T02:19:01;6.43;;;2.23;;
3601;SDS011;1815;50.950;6.920;2022-11-25T02:21:39;12.50;;;3.30;;
3601;SDS011;1815;50.950;6.920;2022-11-25T02:24:17;5.78;;;2.00;;
3601;SDS011;1815;50.950;6.920;2022-11-25T02:26:56;12.27;;;2.38;;
3601;SDS011;1815;50.950;6.920;2022-11-25T02:29:22;8.45;;;1.85;;
3601;SDS011;1815;50.950;6.920;2022-11-25T02:31:49;12.45;;;2.05;;
3601;SDS011;1815;50.950;6.920;2022-11-25T02:34:15;10.48;;;3.22;;
3601;SDS011;1815;50.950;6.920;2022-11-25T02:36:41;9.17;;;2.70;;
3601;SDS011;1815;50.950;6.920;2022-11-25T02:39:07;8.80;;;2.90;;
3601;SDS011;1815;50.950;6.920;2022-11-25T02:41:34;6.30;;;2.50;;
3601;SDS011;1815;50.950;6.920;2022-11-25T02:44:04;9.02;;;2.70;;
3601;SDS011;1815;50.950;6.920;2022-11-25T02:46:31;5.80;;;2.45;;
3601;SDS011;1815;50.950;6.920;2022-11-25T02:49:01;7.10;;;2.70;;
3601;SDS011;1815;50.950;6.920;2022-11-25T02:51:28;6.40;;;2.55;;
3601;SDS011;1815;50.950;6.920;2022-11-25T02:53:57;10.55;;;2.40;;
3601;SDS011;1815;50.950;6.920;2022-11-25T02:56:26;6.57;;;2.63;;
3601;SDS011;1815;50.950;6.920;2022-11-25T02:58:54;7.10;;;2.88;;
3601;SDS011;1815;50.950;6.920;2022-11-25T03:01:23;8.05;;;2.63;;
3601;SDS011;1815;50.950;6.920;2022-11-25T03:03:49;6.68;;;1.80;;
3601;SDS011;1815;50.950;6.920;2022-11-25T03:06:15;8.23;;;2.20;;
3601;SDS011;1815;50.950;6.920;2022-11-25T03:08:40;7.43;;;2.60;;
3601;SDS011;1815;50.950;6.920;2022-11-25T03:11:09;7.15;;;2.38;;
3601;SDS011;1815;50.950;6.920;2022-11-25T03:13:36;6.07;;;2.55;;
3601;SDS011;1815;50.950;6.920;2022-11-25T03:16:02;10.70;;;2.67;;
3601;SDS011;1815;50.950;6.920;2022-11-25T03:18:28;5.72;;;2.50;;
3601;SDS011;1815;50.950;6.920;2022-11-25T03:20:54;6.50;;;2.40;;
3601;SDS011;1815;50.950;6.920;2022-11-25T03:23:22;9.32;;;2.15;;
3601;SDS011;1815;50.950;6.920;2022-11-25T03:25:52;6.35;;;2.33;;
3601;SDS011;1815;50.950;6.920;2022-11-25T03:28:18;7.93;;;2.15;;
3601;SDS011;1815;50.950;6.920;2022-11-25T03:30:44;10.02;;;2.72;;
3601;SDS011;1815;50.950;6.920;2022-11-25T03:33:10;6.32;;;2.70;;
3601;SDS011;1815;50.950;6.920;2022-11-25T03:35:36;8.00;;;2.20;;
3601;SDS011;1815;50.950;6.920;2022-11-25T03:38:02;6.00;;;2.38;;
3601;SDS011;1815;50.950;6.920;2022-11-25T03:40:32;16.92;;;3.38;;
3601;SDS011;1815;50.950;6.920;2022-11-25T03:42:57;6.17;;;1.83;;
3601;SDS011;1815;50.950;6.920;2022-11-25T03:45:23;8.03;;;1.90;;
3601;SDS011;1815;50.950;6.920;2022-11-25T03:47:49;9.83;;;2.00;;
3601;SDS011;1815;50.950;6.920;2022-11-25T03:50:15;4.47;;;1.63;;
3601;SDS011;1815;50.950;6.920;2022-11-25T03:52:43;8.27;;;2.00;;
3601;SDS011;1815;50.950;6.920;2022-11-25T03:55:09;9.45;;;3.10;;
3601;SDS011;1815;50.950;6.920;2022-11-25T03:57:38;5.72;;;2.30;;
3601;SDS011;1815;50.950;6.920;2022-11-25T04:00:05;7.43;;;2.20;;
3601;SDS011;1815;50.950;6.920;2022-11-25T04:02:43;6.68;;;1.90;;
3601;SDS011;1815;50.950;6.920;2022-11-25T04:05:10;6.97;;;2.13;;
3601;SDS011;1815;50.950;6.920;2022-11-25T04:07:36;8.20;;;2.58;;
3601;SDS011;1815;50.950;6.920;2022-11-25T04:10:04;6.88;;;2.70;;
3601;SDS011;1815;50.950;6.920;2022-11-25T04:12:32;8.40;;;2.15;;
3601;SDS011;1815;50.950;6.920;2022-11-25T04:15:17;9.38;;;2.20;;
3601;SDS011;1815;50.950;6.920;2022-11-25T04:17:48;6.60;;;2.15;;
3601;SDS011;1815;50.950;6.920;2022-11-25T04:20:13;5.43;;;2.20;;
3601;SDS011;1815;50.950;6.920;2022-11-25T04:22:43;6.50;;;2.10;;
3601;SDS011;1815;50.950;6.920;2022-11-25T04:25:10;6.40;;;1.95;;
3601;SDS011;1815;50.950;6.920;2022-11-25T04:27:36;7.70;;;2.42;;
3601;SDS011;1815;50.950;6.920;2022-11-25T04:30:03;8.05;;;2.05;;
3601;SDS011;1815;50.950;6.920;2022-11-25T04:32:33;8.95;;;2.53;;
3601;SDS011;1815;50.950;6.920;2022-11-25T04:35:01;7.18;;;2.67;;
3601;SDS011;1815;50.950;6.920;2022-11-25T04:37:28;8.35;;;2.20;;
3601;SDS011;1815;50.950;6.920;2022-11-25T04:39:53;6.40;;;2.37;;
3601;SDS011;1815;50.950;6.920;2022-11-25T04:42:19;6.63;;;2.07;;
3601;SDS011;1815;50.950;6.920;2022-11-25T04:45:00;9.40;;;2.67;;
3601;SDS011;1815;50.950;6.920;2022-11-25T04:47:28;8.90;;;2.50;;
3601;SDS011;1815;50.950;6.920;2022-11-25T04:49:54;6.47;;;2.37;;
3601;SDS011;1815;50.950;6.920;2022-11-25T04:52:21;5.97;;;1.98;;
3601;SDS011;1815;50.950;6.920;2022-11-25T04:54:47;6.87;;;1.97;;
3601;SDS011;1815;50.950;6.920;2022-11-25T04:57:13;11.13;;;2.90;;
3601;SDS011;1815;50.950;6.920;2022-11-25T04:59:42;8.68;;;2.75;;
3601;SDS011;1815;50.950;6.920;2022-11-25T05:02:14;8.23;;;1.88;;
3601;SDS011;1815;50.950;6.920;2022-11-25T05:04:53;5.80;;;2.33;;
3601;SDS011;1815;50.950;6.920;2022-11-25T05:07:21;7.20;;;2.45;;
3601;SDS011;1815;50.950;6.920;2022-11-25T05:09:50;9.73;;;2.30;;
3601;SDS011;1815;50.950;6.920;2022-11-25T05:12:26;8.00;;;2.00;;
3601;SDS011;1815;50.950;6.920;2022-11-25T05:14:53;10.10;;;1.60;;
3601;SDS011;1815;50.950;6.920;2022-11-25T05:17:21;6.03;;;1.95;;
3601;SDS011;1815;50.950;6.920;2022-11-25T05:19:49;11.10;;;2.80;;
3601;SDS011;1815;50.950;6.920;2022-11-25T05:22:18;8.07;;;2.20;;
3601;SDS011;1815;50.950;6.920;2022-11-25T05:24:45;10.73;;;3.17;;
3601;SDS011;1815;50.950;6.920;2022-11-25T05:27:12;8.27;;;2.03;;
3601;SDS011;1815;50.950;6.920;2022-11-25T05:29:38;13.90;;;3.95;;
3601;SDS011;1815;50.950;6.920;2022-11-25T05:32:05;6.13;;;1.90;;
3601;SDS011;1815;50.950;6.920;2022-11-25T05:34:32;10.65;;;2.75;;
3601;SDS011;1815;50.950;6.920;2022-11-25T05:36:58;6.50;;;2.03;;
3601;SDS011;1815;50.950;6.920;2022-11-25T05:39:24;9.10;;;2.20;;
3601;SDS011;1815;50.950;6.920;2022-11-25T05:42:19;8.70;;;2.80;;
3601;SDS011;1815;50.950;6.920;2022-11-25T05:44:46;8.40;;;2.25;;
3601;SDS011;1815;50.950;6.920;2022-11-25T05:47:12;5.20;;;2.10;;
3601;SDS011;1815;50.950;6.920;2022-11-25T05:49:38;6.30;;;2.30;;
3601;SDS011;1815;50.950;6.920;2022-11-25T05:52:04;10.70;;;2.73;;
3601;SDS011;1815;50.950;6.920;2022-11-25T05:54:36;7.25;;;3.25;;
3601;SDS011;1815;50.950;6.920;2022-11-25T05:57:01;9.77;;;2.23;;
3601;SDS011;1815;50.950;6.920;2022-11-25T05:59:27;5.77;;;2.17;;
3601;SDS011;1815;50.950;6.920;2022-11-25T06:02:07;5.07;;;2.00;;
3601;SDS011;1815;50.950;6.920;2022-11-25T06:04:33;9.50;;;2.23;;
3601;SDS011;1815;50.950;6.920;2022-11-25T06:06:58;8.37;;;1.93;;
3601;SDS011;1815;50.950;6.920;2022-11-25T06:09:24;5.70;;;2.30;;
3601;SDS011;1815;50.950;6.920;2022-11-25T06:11:50;5.67;;;1.73;;
3601;SDS011;1815;50.950;6.920;2022-11-25T06:14:17;8.13;;;2.53;;
3601;SDS011;1815;50.950;6.920;2022-11-25T06:16:43;11.73;;;2.60;;
3601;SDS011;1815;50.950;6.920;2022-11-25T06:19:21;9.40;;;2.33;;
3601;SDS011;1815;50.950;6.920;2022-11-25T06:21:47;4.67;;;2.30;;
3601;SDS011;1815;50.950;6.920;2022-11-25T06:24:13;6.05;;;2.17;;
3601;SDS011;1815;50.950;6.920;2022-11-25T06:26:42;8.02;;;2.45;;
3601;SDS011;1815;50.950;6.920;2022-11-25T06:29:09;5.75;;;2.92;;
3601;SDS011;1815;50.950;6.920;2022-11-25T06:31:35;6.00;;;2.20;;
3601;SDS011;1815;50.950;6.920;2022-11-25T06:34:19;6.22;;;2.63;;
3601;SDS011;1815;50.950;6.920;2022-11-25T06:36:45;8.27;;;2.85;;
3601;SDS011;1815;50.950;6.920;2022-11-25T06:39:12;8.02;;;2.45;;
3601;SDS011;1815;50.950;6.920;2022-11-25T06:41:38;7.37;;;2.80;;
3601;SDS011;1815;50.950;6.920;2022-11-25T06:44:04;9.13;;;2.97;;
3601;SDS011;1815;50.950;6.920;2022-11-25T06:46:29;8.77;;;2.93;;
3601;SDS011;1815;50.950;6.920;2022-11-25T06:48:57;9.33;;;2.80;;
3601;SDS011;1815;50.950;6.920;2022-11-25T06:51:24;6.72;;;3.08;;
3601;SDS011;1815;50.950;6.920;2022-11-25T06:53:50;6.25;;;2.38;;
3601;SDS011;1815;50.950;6.920;2022-11-25T06:56:20;12.85;;;4.40;;
3601;SDS011;1815;50.950;6.920;2022-11-25T06:58:47;7.45;;;2.78;;
3601;SDS011;1815;50.950;6.920;2022-11-25T07:01:17;7.25;;;3.10;;
3601;SDS011;1815;50.950;6.920;2022-11-25T07:03:46;12.38;;;4.45;;
3601;SDS011;1815;50.950;6.920;2022-11-25T07:06:16;5.55;;;2.40;;
3601;SDS011;1815;50.950;6.920;2022-11-25T07:08:43;10.00;;;3.28;;
3601;SDS011;1815;50.950;6.920;2022-11-25T07:11:19;9.00;;;2.67;;
3601;SDS011;1815;50.950;6.920;2022-11-25T07:14:00;7.88;;;3.35;;
3601;SDS011;1815;50.950;6.920;2022-11-25T07:16:28;5.93;;;2.55;;
3601;SDS011;1815;50.950;6.920;2022-11-25T07:18:55;6.60;;;3.78;;
3601;SDS011;1815;50.950;6.920;2022-11-25T07:21:23;7.47;;;2.92;;
3601;SDS011;1815;50.950;6.920;2022-11-25T07:23:49;7.85;;;3.72;;
3601;SDS011;1815;50.950;6.920;2022-11-25T07:26:18;8.70;;;2.60;;
3601;SDS011;1815;50.950;6.920;2022-11-25T07:28:46;7.00;;;2.72;;
3601;SDS011;1815;50.950;6.920;2022-11-25T07:33:52;9.02;;;4.05;;
3601;SDS011;1815;50.950;6.920;2022-11-25T07:36:18;7.43;;;2.83;;
3601;SDS011;1815;50.950;6.920;2022-11-25T07:38:44;5.03;;;2.80;;
3601;SDS011;1815;50.950;6.920;2022-11-25T07:41:14;9.70;;;3.30;;
3601;SDS011;1815;50.950;6.920;2022-11-25T07:43:45;9.55;;;3.22;;
3601;SDS011;1815;50.950;6.920;2022-11-25T07:46:21;10.30;;;3.67;;
3601;SDS011;1815;50.950;6.920;2022-11-25T07:48:52;8.77;;;3.20;;
3601;SDS011;1815;50.950;6.920;2022-11-25T07:53:46;6.80;;;2.90;;
3601;SDS011;1815;50.950;6.920;2022-11-25T07:56:13;13.55;;;3.60;;
3601;SDS011;1815;50.950;6.920;2022-11-25T07:58:40;11.90;;;3.90;;
3601;SDS011;1815;50.950;6.920;2022-11-25T08:01:07;8.57;;;3.30;;
3601;SDS011;1815;50.950;6.920;2022-11-25T08:03:36;9.80;;;3.63;;
3601;SDS011;1815;50.950;6.920;2022-11-25T08:06:03;6.85;;;3.20;;
3601;SDS011;1815;50.950;6.920;2022-11-25T08:08:31;5.63;;;3.15;;
3601;SDS011;1815;50.950;6.920;2022-11-25T08:10:57;6.30;;;2.85;;
3601;SDS011;1815;50.950;6.920;2022-11-25T08:13:22;7.17;;;3.90;;
3601;SDS011;1815;50.950;6.920;2022-11-25T08:15:49;10.20;;;2.70;;
3601;SDS011;1815;50.950;6.920;2022-11-25T08:18:14;8.43;;;3.50;;
3601;SDS011;1815;50.950;6.920;2022-11-25T08:20:40;7.03;;;3.40;;
3601;SDS011;1815;50.950;6.920;2022-11-25T08:23:06;5.73;;;2.73;;
3601;SDS011;1815;50.950;6.920;2022-11-25T08:25:32;5.73;;;2.57;;
3601;SDS011;1815;50.950;6.920;2022-11-25T08:28:03;4.60;;;2.30;;
3601;SDS011;1815;50.950;6.920;2022-11-25T08:30:28;4.30;;;2.27;;
3601;SDS011;1815;50.950;6.920;2022-11-25T08:32:55;6.75;;;2.70;;
3601;SDS011;1815;50.950;6.920;2022-11-25T08:35:22;5.95;;;2.20;;
3601;SDS011;1815;50.950;6.920;2022-11-25T08:37:48;5.23;;;2.30;;
3601;SDS011;1815;50.950;6.920;2022-11-25T08:40:13;6.93;;;2.27;;
3601;SDS011;1815;50.950;6.920;2022-11-25T08:42:40;5.35;;;2.60;;
3601;SDS011;1815;50.950;6.920;2022-11-25T08:45:06;8.83;;;3.10;;
3601;SDS011;1815;50.950;6.920;2022-11-25T08:47:33;5.50;;;3.47;;
3601;SDS011;1815;50.950;6.920;2022-11-25T08:49:58;4.43;;;2.37;;
3601;SDS011;1815;50.950;6.920;2022-11-25T08:52:24;6.90;;;2.30;;
3601;SDS011;1815;50.950;6.920;2022-11-25T08:54:53;5.88;;;2.83;;
3601;SDS011;1815;50.950;6.920;2022-11-25T08:57:18;6.73;;;2.90;;
3601;SDS011;1815;50.950;6.920;2022-11-25T08:59:44;7.03;;;2.87;;
3601;SDS011;1815;50.950;6.920;2022-11-25T09:02:11;6.95;;;2.90;;
3601;SDS011;1815;50.950;6.920;2022-11-25T09:04:39;5.50;;;3.15;;
3601;SDS011;1815;50.950;6.920;2022-11-25T09:07:05;3.43;;;1.93;;
3601;SDS011;1815;50.950;6.920;2022-11-25T09:09:31;6.47;;;3.30;;
3601;SDS011;1815;50.950;6.920;2022-11-25T09:11:57;5.57;;;2.65;;
3601;SDS011;1815;50.950;6.920;2022-11-25T09:14:22;5.07;;;2.70;;
3601;SDS011;1815;50.950;6.920;2022-11-25T09:16:48;3.70;;;2.00;;
3601;SDS011;1815;50.950;6.920;2022-11-25T09:19:14;5.23;;;2.40;;
3601;SDS011;1815;50.950;6.920;2022-11-25T09:21:41;5.60;;;2.50;;
3601;SDS011;1815;50.950;6.920;2022-11-25T09:24:08;8.00;;;1.95;;
3601;SDS011;1815;50.950;6.920;2022-11-25T09:26:34;4.57;;;1.98;;
3601;SDS011;1815;50.950;6.920;2022-11-25T09:29:01;6.63;;;2.03;;
3601;SDS011;1815;50.950;6.920;2022-11-25T09:31:27;4.97;;;1.98;;
3601;SDS011;1815;50.950;6.920;2022-11-25T09:33:53;9.23;;;2.13;;
3601;SDS011;1815;50.950;6.920;2022-11-25T09:36:20;3.83;;;2.20;;
3601;SDS011;1815;50.950;6.920;2022-11-25T09:38:47;3.20;;;1.85;;
3601;SDS011;1815;50.950;6.920;2022-11-25T09:41:23;5.45;;;1.60;;
3601;SDS011;1815;50.950;6.920;2022-11-25T09:44:22;3.67;;;1.67;;
3601;SDS011;1815;50.950;6.920;2022-11-25T09:55:41;4.40;;;1.75;;
3601;SDS011;1815;50.950;6.920;2022-11-25T10:00:58;2.70;;;1.20;;
3601;SDS011;1815;50.950;6.920;2022-11-25T10:06:12;3.78;;;1.50;;
3601;SDS011;1815;50.950;6.920;2022-11-25T10:08:40;2.72;;;1.10;;
3601;SDS011;1815;50.950;6.920;2022-11-25T10:30:37;3.13;;;1.20;;
3601;SDS011;1815;50.950;6.920;2022-11-25T10:33:21;5.78;;;1.40;;
3601;SDS011;1815;50.950;6.920;2022-11-25T10:36:03;4.60;;;1.20;;
3601;SDS011;1815;50.950;6.920;2022-11-25T10:41:23;3.75;;;1.30;;
3601;SDS011;1815;50.950;6.920;2022-11-25T10:43:52;5.07;;;1.20;;
3601;SDS011;1815;50.950;6.920;2022-11-25T10:46:39;7.07;;;1.40;;
3601;SDS011;1815;50.950;6.920;2022-11-25T10:49:27;4.93;;;1.20;;
3601;SDS011;1815;50.950;6.920;2022-11-25T10:52:00;5.57;;;1.13;;
3601;SDS011;1815;50.950;6.920;2022-11-25T10:54:27;5.13;;;1.13;;
3601;SDS011;1815;50.950;6.920;2022-11-25T10:57:03;6.90;;;1.80;;
3601;SDS011;1815;50.950;6.920;2022-11-25T10:59:41;2.67;;;1.20;;
3601;SDS011;1815;50.950;6.920;2022-11-25T11:02:25;5.73;;;1.20;;
3601;SDS011;1815;50.950;6.920;2022-11-25T11:07:34;4.50;;;1.63;;
3601;SDS011;1815;50.950;6.920;2022-11-25T11:15:26;9.50;;;1.63;;
3601;SDS011;1815;50.950;6.920;2022-11-25T11:17:53;5.30;;;1.33;;
3601;SDS011;1815;50.950;6.920;2022-11-25T11:20:23;7.07;;;1.63;;
3601;SDS011;1815;50.950;6.920;2022-11-25T11:25:39;8.60;;;1.80;;
3601;SDS011;1815;50.950;6.920;2022-11-25T11:28:25;4.87;;;1.30;;
3601;SDS011;1815;50.950;6.920;2022-11-25T11:30:52;5.00;;;1.23;;
3601;SDS011;1815;50.950;6.920;2022-11-25T11:33:42;9.83;;;1.47;;
3601;SDS011;1815;50.950;6.920;2022-11-25T11:36:32;13.10;;;1.37;;
3601;SDS011;1815;50.950;6.920;2022-11-25T11:50:45;12.80;;;2.87;;
3601;SDS011;1815;50.950;6.920;2022-11-25T12:06:44;12.10;;;4.17;;
3601;SDS011;1815;50.950;6.920;2022-11-25T12:09:22;10.87;;;5.47;;
3601;SDS011;1815;50.950;6.920;2022-11-25T12:11:52;11.07;;;4.30;;
3601;SDS011;1815;50.950;6.920;2022-11-25T12:14:31;8.60;;;4.10;;
3601;SDS011;1815;50.950;6.920;2022-11-25T12:17:04;8.13;;;2.40;;
3601;SDS011;1815;50.950;6.920;2022-11-25T12:19:38;11.33;;;2.63;;
3601;SDS011;1815;50.950;6.920;2022-11-25T12:22:28;10.73;;;3.50;;
3601;SDS011;1815;50.950;6.920;2022-11-25T12:25:12;10.30;;;3.37;;
3601;SDS011;1815;50.950;6.920;2022-11-25T12:27:49;10.87;;;2.43;;
3601;SDS011;1815;50.950;6.920;2022-11-25T12:30:18;8.17;;;1.87;;
3601;SDS011;1815;50.950;6.920;2022-11-25T12:33:02;7.33;;;2.40;;
3601;SDS011;1815;50.950;6.920;2022-11-25T12:44:11;8.50;;;2.77;;
3601;SDS011;1815;50.950;6.920;2022-11-25T12:46:53;7.77;;;3.20;;
3601;SDS011;1815;50.950;6.920;2022-11-25T12:49:40;10.00;;;2.90;;
3601;SDS011;1815;50.950;6.920;2022-11-25T13:00:18;8.20;;;1.90;;
3601;SDS011;1815;50.950;6.920;2022-11-25T13:11:44;11.20;;;4.90;;
3601;SDS011;1815;50.950;6.920;2022-11-25T13:14:23;8.90;;;4.00;;
3601;SDS011;1815;50.950;6.920;2022-11-25T13:16:56;6.07;;;2.17;;
3601;SDS011;1815;50.950;6.920;2022-11-25T13:19:23;7.03;;;2.37;;
3601;SDS011;1815;50.950;6.920;2022-11-25T13:22:02;5.90;;;2.33;;
3601;SDS011;1815;50.950;6.920;2022-11-25T13:27:28;12.20;;;2.33;;
3601;SDS011;1815;50.950;6.920;2022-11-25T13:29:54;9.37;;;1.77;;
3601;SDS011;1815;50.950;6.920;2022-11-25T13:32:54;9.83;;;2.33;;
3601;SDS011;1815;50.950;6.920;2022-11-25T13:37:50;6.23;;;2.17;;
3601;SDS011;1815;50.950;6.920;2022-11-25T13:42:46;9.90;;;1.90;;
3601;SDS011;1815;50.950;6.920;2022-11-25T13:47:52;9.23;;;1.53;;
3601;SDS011;1815;50.950;6.920;2022-11-25T13:50:21;8.43;;;1.57;;
3601;SDS011;1815;50.950;6.920;2022-11-25T13:52:49;3.60;;;1.30;;
3601;SDS011;1815;50.950;6.920;2022-11-25T13:58:05;6.30;;;3.60;;
3601;SDS011;1815;50.950;6.920;2022-11-25T14:04:03;6.00;;;2.20;;
3601;SDS011;1815;50.950;6.920;2022-11-25T14:06:03;10.90;;;2.37;;
3601;SDS011;1815;50.950;6.920;2022-11-25T14:08:53;7.40;;;2.10;;
3601;SDS011;1815;50.950;6.920;2022-11-25T14:11:38;7.50;;;2.10;;
3601;SDS011;1815;50.950;6.920;2022-11-25T14:25:56;20.70;;;8.80;;
3601;SDS011;1815;50.950;6.920;2022-11-25T14:31:15;13.30;;;6.43;;
3601;SDS011;1815;50.950;6.920;2022-11-25T14:33:56;12.67;;;5.43;;
3601;SDS011;1815;50.950;6.920;2022-11-25T14:36:28;12.27;;;5.30;;
3601;SDS011;1815;50.950;6.920;2022-11-25T14:39:01;11.77;;;4.93;;
3601;SDS011;1815;50.950;6.920;2022-11-25T14:41:51;19.43;;;9.70;;
3601;SDS011;1815;50.950;6.920;2022-11-25T14:47:03;9.70;;;3.97;;
3601;SDS011;1815;50.950;6.920;2022-11-25T14:49:47;9.53;;;2.70;;
3601;SDS011;1815;50.950;6.920;2022-11-25T14:52:16;8.00;;;3.00;;
3601;SDS011;1815;50.950;6.920;2022-11-25T14:54:53;7.50;;;2.63;;
3601;SDS011;1815;50.950;6.920;2022-11-25T14:57:21;15.75;;;4.82;;
3601;SDS011;1815;50.950;6.920;2022-11-25T14:59:53;12.73;;;4.90;;
3601;SDS011;1815;50.950;6.920;2022-11-25T15:02:23;12.80;;;4.00;;
3601;SDS011;1815;50.950;6.920;2022-11-25T15:04:59;16.93;;;7.90;;
3601;SDS011;1815;50.950;6.920;2022-11-25T15:07:27;11.03;;;6.10;;
3601;SDS011;1815;50.950;6.920;2022-11-25T15:09:53;12.43;;;5.50;;
3601;SDS011;1815;50.950;6.920;2022-11-25T15:12:19;13.30;;;7.23;;
3601;SDS011;1815;50.950;6.920;2022-11-25T15:14:48;15.70;;;7.53;;
3601;SDS011;1815;50.950;6.920;2022-11-25T15:17:27;7.87;;;4.47;;
3601;SDS011;1815;50.950;6.920;2022-11-25T15:19:53;11.90;;;3.00;;
3601;SDS011;1815;50.950;6.920;2022-11-25T15:22:22;7.37;;;2.60;;
3601;SDS011;1815;50.950;6.920;2022-11-25T15:24:48;7.47;;;2.80;;
3601;SDS011;1815;50.950;6.920;2022-11-25T15:27:16;9.20;;;2.50;;
3601;SDS011;1815;50.950;6.920;2022-11-25T15:29:49;8.30;;;1.90;;
3601;SDS011;1815;50.950;6.920;2022-11-25T15:32:25;6.77;;;2.90;;
3601;SDS011;1815;50.950;6.920;2022-11-25T15:34:56;6.80;;;2.30;;
3601;SDS011;1815;50.950;6.920;2022-11-25T15:37:24;5.67;;;2.10;;
3601;SDS011;1815;50.950;6.920;2022-11-25T15:42:54;6.57;;;1.90;;
3601;SDS011;1815;50.950;6.920;2022-11-25T15:45:21;5.30;;;1.33;;
3601;SDS011;1815;50.950;6.920;2022-11-25T15:47:47;4.37;;;1.83;;
3601;SDS011;1815;50.950;6.920;2022-11-25T15:50:23;8.00;;;3.03;;
3601;SDS011;1815;50.950;6.920;2022-11-25T15:52:57;7.77;;;2.40;;
3601;SDS011;1815;50.950;6.920;2022-11-25T15:57:53;9.02;;;3.58;;
3601;SDS011;1815;50.950;6.920;2022-11-25T16:00:22;12.00;;;4.90;;
3601;SDS011;1815;50.950;6.920;2022-11-25T16:05:18;7.93;;;3.10;;
3601;SDS011;1815;50.950;6.920;2022-11-25T16:10:33;9.90;;;3.83;;
3601;SDS011;1815;50.950;6.920;2022-11-25T16:18:51;14.03;;;3.60;;
3601;SDS011;1815;50.950;6.920;2022-11-25T16:21:27;10.52;;;3.60;;
3601;SDS011;1815;50.950;6.920;2022-11-25T16:29:51;8.30;;;3.10;;
3601;SDS011;1815;50.950;6.920;2022-11-25T16:32:18;9.50;;;4.10;;
3601;SDS011;1815;50.950;6.920;2022-11-25T16:34:46;7.70;;;2.63;;
3601;SDS011;1815;50.950;6.920;2022-11-25T16:37:12;7.70;;;3.00;;
3601;SDS011;1815;50.950;6.920;2022-11-25T16:39:38;5.70;;;1.80;;
3601;SDS011;1815;50.950;6.920;2022-11-25T16:42:03;4.67;;;1.50;;
3601;SDS011;1815;50.950;6.920;2022-11-25T16:44:30;8.80;;;2.33;;
3601;SDS011;1815;50.950;6.920;2022-11-25T16:46:58;3.80;;;1.67;;
3601;SDS011;1815;50.950;6.920;2022-11-25T16:49:24;7.57;;;2.10;;
3601;SDS011;1815;50.950;6.920;2022-11-25T16:51:50;11.50;;;5.95;;
3601;SDS011;1815;50.950;6.920;2022-11-25T16:54:20;10.60;;;3.13;;
3601;SDS011;1815;50.950;6.920;2022-11-25T16:56:47;8.40;;;2.60;;
3601;SDS011;1815;50.950;6.920;2022-11-25T16:59:17;7.00;;;2.40;;
3601;SDS011;1815;50.950;6.920;2022-11-25T17:01:46;8.13;;;1.97;;
3601;SDS011;1815;50.950;6.920;2022-11-25T17:04:12;7.57;;;3.00;;
3601;SDS011;1815;50.950;6.920;2022-11-25T17:06:39;9.55;;;3.47;;
3601;SDS011;1815;50.950;6.920;2022-11-25T17:09:06;5.07;;;2.33;;
3601;SDS011;1815;50.950;6.920;2022-11-25T17:11:34;7.93;;;2.20;;
3601;SDS011;1815;50.950;6.920;2022-11-25T17:14:04;9.77;;;2.88;;
3601;SDS011;1815;50.950;6.920;2022-11-25T17:16:35;7.17;;;1.90;;
3601;SDS011;1815;50.950;6.920;2022-11-25T17:19:02;5.63;;;2.00;;
3601;SDS011;1815;50.950;6.920;2022-11-25T17:21:27;8.00;;;2.47;;
3601;SDS011;1815;50.950;6.920;2022-11-25T17:23:54;6.90;;;1.83;;
3601;SDS011;1815;50.950;6.920;2022-11-25T17:26:36;11.40;;;5.00;;
3601;SDS011;1815;50.950;6.920;2022-11-25T17:29:05;7.03;;;1.87;;
3601;SDS011;1815;50.950;6.920;2022-11-25T17:31:36;11.73;;;2.33;;
3601;SDS011;1815;50.950;6.920;2022-11-25T17:34:03;7.90;;;2.10;;
3601;SDS011;1815;50.950;6.920;2022-11-25T17:36:28;6.83;;;1.80;;
3601;SDS011;1815;50.950;6.920;2022-11-25T17:38:54;2.90;;;1.23;;
3601;SDS011;1815;50.950;6.920;2022-11-25T17:41:21;3.70;;;1.73;;
3601;SDS011;1815;50.950;6.920;2022-11-25T17:43:50;5.00;;;1.83;;
3601;SDS011;1815;50.950;6.920;2022-11-25T17:46:18;20.87;;;10.60;;
3601;SDS011;1815;50.950;6.920;2022-11-25T17:48:44;19.23;;;12.50;;
3601;SDS011;1815;50.950;6.920;2022-11-25T17:51:10;17.03;;;9.30;;
3601;SDS011;1815;50.950;6.920;2022-11-25T17:53:37;19.97;;;10.77;;
3601;SDS011;1815;50.950;6.920;2022-11-25T17:56:17;18.10;;;10.93;;
3601;SDS011;1815;50.950;6.920;2022-11-25T17:58:47;15.93;;;10.90;;
3601;SDS011;1815;50.950;6.920;2022-11-25T18:01:13;17.30;;;12.07;;
3601;SDS011;1815;50.950;6.920;2022-11-25T18:03:39;13.80;;;9.50;;
3601;SDS011;1815;50.950;6.920;2022-11-25T18:06:05;13.40;;;7.77;;
3601;SDS011;1815;50.950;6.920;2022-11-25T18:08:31;10.95;;;6.90;;
3601;SDS011;1815;50.950;6.920;2022-11-25T18:10:57;9.40;;;5.30;;
3601;SDS011;1815;50.950;6.920;2022-11-25T18:13:24;14.20;;;9.87;;
3601;SDS011;1815;50.950;6.920;2022-11-25T18:15:49;15.30;;;8.57;;